createdAt,value
2023-03-07T00:00:34.850Z,2.62
2023-03-07T00:02:36.333Z,2.63
2023-03-07T00:04:37.944Z,2.62
2023-03-07T00:06:39.417Z,2.62
2023-03-07T00:08:40.925Z,2.60
2023-03-07T00:10:42.356Z,2.59
2023-03-07T00:12:43.972Z,2.58
2023-03-07T00:14:45.458Z,2.61
2023-03-07T00:16:50.645Z,2.60
2023-03-07T00:18:52.352Z,2.59
2023-03-07T00:20:59.106Z,2.58
2023-03-07T00:23:00.608Z,2.57
2023-03-07T00:25:02.802Z,2.58
2023-03-07T00:27:04.616Z,2.58
2023-03-07T00:29:10.331Z,2.56
2023-03-07T00:31:11.911Z,2.57
2023-03-07T00:33:13.384Z,2.54
2023-03-07T00:35:14.915Z,2.51
2023-03-07T00:37:16.449Z,2.51
2023-03-07T00:39:17.931Z,2.47
2023-03-07T00:41:27.437Z,2.49
2023-03-07T00:43:29.507Z,2.47
2023-03-07T00:45:31.017Z,2.47
2023-03-07T00:47:32.485Z,2.48
2023-03-07T00:49:34.050Z,2.46
2023-03-07T00:51:35.492Z,2.42
2023-03-07T00:53:37.483Z,2.42
2023-03-07T00:55:39.201Z,2.40
2023-03-07T00:57:40.698Z,2.42
2023-03-07T00:59:42.178Z,2.38
2023-03-07T01:01:43.807Z,2.41
2023-03-07T01:03:45.424Z,2.40
2023-03-07T01:05:46.984Z,2.38
2023-03-07T01:07:48.523Z,2.39
2023-03-07T01:09:53.299Z,2.38
2023-03-07T01:11:54.767Z,2.39
2023-03-07T01:13:58.004Z,2.39
2023-03-07T01:16:14.248Z,2.38
2023-03-07T01:18:15.771Z,2.40
2023-03-07T01:20:17.955Z,2.42
2023-03-07T01:22:19.401Z,2.42
2023-03-07T01:24:20.876Z,2.41
2023-03-07T01:26:25.069Z,2.41
2023-03-07T01:28:26.540Z,2.40
2023-03-07T01:30:28.004Z,2.44
2023-03-07T01:32:29.593Z,2.44
2023-03-07T01:34:31.081Z,2.43
2023-03-07T01:36:34.826Z,2.44
2023-03-07T01:38:36.306Z,2.43
2023-03-07T01:40:38.520Z,2.47
2023-03-07T01:42:40.002Z,2.47
2023-03-07T01:45:12.316Z,2.48
2023-03-07T01:47:13.834Z,2.47
2023-03-07T01:49:21.217Z,2.49
2023-03-07T01:51:23.598Z,2.49
2023-03-07T01:53:25.105Z,2.52
2023-03-07T01:55:32.961Z,2.52
2023-03-07T01:57:39.481Z,2.53
2023-03-07T01:59:46.110Z,2.57
2023-03-07T02:01:48.975Z,2.56
2023-03-07T02:03:58.276Z,2.60
2023-03-07T02:06:04.052Z,2.62
2023-03-07T02:08:09.635Z,2.63
2023-03-07T02:10:14.158Z,2.66
2023-03-07T02:12:15.959Z,2.69
2023-03-07T02:14:17.420Z,2.72
2023-03-07T02:16:19.953Z,2.77
2023-03-07T02:18:26.835Z,2.80
2023-03-07T02:20:28.250Z,2.83
2023-03-07T02:22:29.767Z,2.83
2023-03-07T02:25:00.466Z,2.86
2023-03-07T02:27:01.956Z,2.86
2023-03-07T02:29:03.555Z,2.90
2023-03-07T02:31:07.318Z,2.91
2023-03-07T02:33:08.854Z,2.92
2023-03-07T02:35:23.084Z,2.94
2023-03-07T02:37:27.356Z,2.97
2023-03-07T02:39:30.349Z,2.96
2023-03-07T02:41:33.060Z,2.96
2023-03-07T02:43:34.515Z,2.95
2023-03-07T02:45:36.026Z,2.95
2023-03-07T02:47:37.762Z,2.96
2023-03-07T02:49:39.230Z,2.97
2023-03-07T02:51:40.741Z,2.97
2023-03-07T02:53:42.308Z,2.98
2023-03-07T02:55:43.834Z,2.97
2023-03-07T02:57:45.525Z,2.95
2023-03-07T02:59:47.641Z,2.94
2023-03-07T03:01:49.175Z,2.94
2023-03-07T03:03:50.790Z,2.92
2023-03-07T03:05:52.234Z,2.93
2023-03-07T03:07:53.777Z,2.91
2023-03-07T03:09:55.315Z,2.89
2023-03-07T03:11:57.388Z,2.87
2023-03-07T03:13:58.867Z,2.87
2023-03-07T03:16:00.423Z,2.88
2023-03-07T03:18:01.937Z,2.85
2023-03-07T03:20:11.795Z,2.85
2023-03-07T03:22:13.584Z,2.82
2023-03-07T03:24:15.050Z,2.82
2023-03-07T03:26:16.584Z,2.80
2023-03-07T03:28:18.046Z,2.78
2023-03-07T03:30:19.500Z,2.80
2023-03-07T03:32:21.040Z,2.81
2023-03-07T03:34:22.532Z,2.82
2023-03-07T03:36:25.845Z,2.82
2023-03-07T03:38:27.379Z,2.80
2023-03-07T03:40:28.873Z,2.79
2023-03-07T03:42:30.345Z,2.80
2023-03-07T03:44:31.797Z,2.80
2023-03-07T03:46:33.264Z,2.82
2023-03-07T03:48:34.783Z,2.80
2023-03-07T03:50:36.316Z,2.79
2023-03-07T03:52:37.797Z,2.81
2023-03-07T03:54:39.272Z,2.82
2023-03-07T03:56:40.839Z,2.78
2023-03-07T03:58:42.455Z,2.77
2023-03-07T04:00:44.540Z,2.73
2023-03-07T04:02:48.996Z,2.74
2023-03-07T04:04:50.495Z,2.69
2023-03-07T04:06:52.076Z,2.70
2023-03-07T04:08:54.657Z,2.65
2023-03-07T04:10:56.198Z,2.60
2023-03-07T04:12:57.683Z,2.59
2023-03-07T04:14:59.125Z,2.58
2023-03-07T04:17:00.598Z,2.57
2023-03-07T04:19:02.739Z,2.57
2023-03-07T04:21:05.945Z,2.56
2023-03-07T04:23:07.413Z,2.57
2023-03-07T04:25:09.308Z,2.60
2023-03-07T04:27:10.824Z,2.64
2023-03-07T04:29:12.561Z,2.65
2023-03-07T04:31:19.478Z,2.65
2023-03-07T04:33:21.076Z,2.62
2023-03-07T04:35:22.569Z,2.64
2023-03-07T04:37:24.318Z,2.65
2023-03-07T04:39:25.988Z,2.64
2023-03-07T04:41:27.568Z,2.66
2023-03-07T04:43:29.113Z,2.69
2023-03-07T04:45:33.015Z,2.70
2023-03-07T04:47:34.450Z,2.70
2023-03-07T04:49:36.067Z,2.67
2023-03-07T04:51:37.810Z,2.66
2023-03-07T04:53:39.283Z,2.65
2023-03-07T04:55:40.733Z,2.65
2023-03-07T04:57:42.330Z,2.63
2023-03-07T04:59:43.858Z,2.64
2023-03-07T05:01:45.312Z,2.66
2023-03-07T05:03:46.788Z,2.63
2023-03-07T05:05:48.321Z,2.65
2023-03-07T05:07:49.769Z,2.68
2023-03-07T05:09:51.269Z,2.69
2023-03-07T05:11:53.696Z,2.72
2023-03-07T05:13:55.210Z,2.75
2023-03-07T05:15:58.509Z,2.77
2023-03-07T05:18:00.280Z,2.77
2023-03-07T05:20:01.772Z,2.80
2023-03-07T05:22:03.298Z,2.78
2023-03-07T05:24:04.910Z,2.77
2023-03-07T05:26:06.416Z,2.79
2023-03-07T05:28:08.097Z,2.81
2023-03-07T05:30:10.788Z,2.82
2023-03-07T05:32:12.393Z,2.81
2023-03-07T05:34:15.901Z,2.78
2023-03-07T05:36:17.644Z,2.77
2023-03-07T05:38:19.138Z,2.75
2023-03-07T05:40:20.767Z,2.73
2023-03-07T05:42:22.234Z,2.72
2023-03-07T05:44:23.720Z,2.70
2023-03-07T05:46:25.459Z,2.68
2023-03-07T05:48:27.180Z,2.66
2023-03-07T05:50:28.685Z,2.63
2023-03-07T05:52:30.177Z,2.61
2023-03-07T05:54:31.650Z,2.61
2023-03-07T05:56:33.108Z,2.61
2023-03-07T05:58:34.580Z,2.58
2023-03-07T06:00:36.045Z,2.58
2023-03-07T06:02:37.586Z,2.56
2023-03-07T06:04:39.092Z,2.56
2023-03-07T06:06:40.573Z,2.59
2023-03-07T06:08:42.023Z,2.61
2023-03-07T06:10:43.524Z,2.59
2023-03-07T06:12:49.664Z,2.59
2023-03-07T06:14:51.141Z,2.59
2023-03-07T06:16:52.615Z,2.58
2023-03-07T06:18:54.064Z,2.56
2023-03-07T06:21:06.621Z,2.55
2023-03-07T06:23:08.133Z,2.58
2023-03-07T06:25:09.871Z,2.59
2023-03-07T06:27:11.417Z,2.56
2023-03-07T06:29:12.969Z,2.56
2023-03-07T06:31:18.047Z,2.57
2023-03-07T06:33:19.651Z,2.57
2023-03-07T06:35:21.389Z,2.58
2023-03-07T06:37:23.084Z,2.62
2023-03-07T06:39:24.718Z,2.64
2023-03-07T06:41:26.198Z,2.64
2023-03-07T06:43:27.936Z,2.62
2023-03-07T06:45:29.785Z,2.64
2023-03-07T06:47:31.405Z,2.66
2023-03-07T06:49:32.963Z,2.67
2023-03-07T06:51:36.800Z,2.69
2023-03-07T06:53:39.207Z,2.75
2023-03-07T06:55:40.742Z,2.80
2023-03-07T06:57:42.280Z,2.82
2023-03-07T06:59:43.873Z,2.83
2023-03-07T07:01:45.395Z,2.80
2023-03-07T07:03:46.996Z,2.82
2023-03-07T07:05:48.505Z,2.85
2023-03-07T07:07:50.148Z,2.87
2023-03-07T07:09:51.876Z,2.87
2023-03-07T07:11:53.317Z,2.89
2023-03-07T07:13:54.762Z,2.92
2023-03-07T07:15:56.357Z,2.94
2023-03-07T07:17:57.806Z,2.98
2023-03-07T07:19:59.290Z,3.02
2023-03-07T07:22:00.786Z,3.05
2023-03-07T07:24:02.280Z,3.07
2023-03-07T07:26:03.803Z,3.09
2023-03-07T07:28:05.287Z,3.12
2023-03-07T07:30:09.704Z,3.17
2023-03-07T07:32:11.357Z,3.19
2023-03-07T07:34:13.056Z,3.23
2023-03-07T07:36:14.602Z,3.25
2023-03-07T07:38:16.106Z,3.26
2023-03-07T07:40:17.898Z,3.28
2023-03-07T07:42:19.328Z,3.30
2023-03-07T07:44:20.848Z,3.33
2023-03-07T07:46:22.415Z,3.34
2023-03-07T07:48:23.958Z,3.33
2023-03-07T07:50:25.562Z,3.34
2023-03-07T07:52:27.074Z,3.33
2023-03-07T07:54:29.014Z,3.33
2023-03-07T07:56:30.571Z,3.34
2023-03-07T07:58:32.091Z,3.37
2023-03-07T08:00:33.605Z,3.37
2023-03-07T08:02:35.743Z,3.37
2023-03-07T08:04:37.236Z,3.38
2023-03-07T08:06:38.741Z,3.41
2023-03-07T08:08:40.234Z,3.42
2023-03-07T08:10:44.106Z,3.43
2023-03-07T08:12:52.851Z,3.42
2023-03-07T08:14:54.322Z,3.43
2023-03-07T08:16:55.854Z,3.42
2023-03-07T08:18:57.832Z,3.45
2023-03-07T08:20:59.829Z,3.47
2023-03-07T08:23:01.327Z,3.51
2023-03-07T08:25:07.208Z,3.55
2023-03-07T08:27:09.336Z,3.59
2023-03-07T08:29:11.116Z,3.64
2023-03-07T08:31:20.607Z,3.71
2023-03-07T08:33:22.227Z,3.74
2023-03-07T08:35:24.991Z,3.73
2023-03-07T08:37:26.497Z,3.70
2023-03-07T08:39:27.971Z,3.74
2023-03-07T08:41:29.530Z,3.73
2023-03-07T08:43:32.540Z,3.74
2023-03-07T08:45:34.139Z,3.69
2023-03-07T08:47:35.741Z,3.67
2023-03-07T08:49:37.516Z,3.68
2023-03-07T08:51:39.006Z,3.71
2023-03-07T08:53:42.887Z,3.75
2023-03-07T08:55:44.589Z,3.79
2023-03-07T08:57:47.475Z,3.81
2023-03-07T08:59:49.230Z,3.79
2023-03-07T09:01:50.778Z,3.76
2023-03-07T09:03:52.308Z,3.77
2023-03-07T09:05:53.806Z,3.80
2023-03-07T09:07:56.016Z,3.77
2023-03-07T09:09:57.498Z,3.77
2023-03-07T09:11:58.992Z,3.77
2023-03-07T09:14:00.468Z,3.78
2023-03-07T09:16:05.735Z,3.79
2023-03-07T09:18:08.361Z,3.83
2023-03-07T09:20:11.701Z,3.84
2023-03-07T09:22:13.202Z,3.86
2023-03-07T09:24:14.649Z,3.87
2023-03-07T09:26:16.251Z,3.88
2023-03-07T09:28:17.820Z,3.90
2023-03-07T09:30:19.310Z,3.94
2023-03-07T09:32:21.164Z,3.97
2023-03-07T09:34:22.715Z,3.99
2023-03-07T09:36:24.201Z,3.99
2023-03-07T09:38:25.701Z,4.00
2023-03-07T09:40:28.041Z,4.01
2023-03-07T09:42:51.190Z,4.03
2023-03-07T09:45:01.916Z,4.05
2023-03-07T09:47:17.164Z,4.06
2023-03-07T09:49:20.967Z,4.05
2023-03-07T09:51:32.572Z,4.08
2023-03-07T09:53:48.194Z,4.07
2023-03-07T09:55:52.743Z,4.10
2023-03-07T09:57:58.602Z,4.15
2023-03-07T10:00:00.030Z,4.15
2023-03-07T10:02:31.617Z,4.18
2023-03-07T10:04:59.550Z,4.25
2023-03-07T10:07:03.945Z,4.30
2023-03-07T10:09:16.385Z,4.34
2023-03-07T10:11:29.140Z,4.35
2023-03-07T10:13:43.076Z,4.34
2023-03-07T10:16:07.261Z,4.33
2023-03-07T10:18:29.935Z,4.29
2023-03-07T10:20:53.474Z,4.25
2023-03-07T10:23:41.134Z,4.19
2023-03-07T10:26:01.459Z,4.01
2023-03-07T10:28:26.845Z,3.81
2023-03-07T10:30:31.917Z,3.53
2023-03-07T10:32:47.332Z,3.23
2023-03-07T10:34:56.598Z,2.92
2023-03-07T10:37:12.533Z,2.56
2023-03-07T10:39:32.230Z,2.20
2023-03-07T10:41:33.729Z,1.94
2023-03-07T10:43:35.223Z,1.82
2023-03-07T10:45:37.940Z,1.75
2023-03-07T10:47:39.998Z,1.70
2023-03-07T10:49:47.098Z,1.62
2023-03-07T10:52:01.949Z,1.56
2023-03-07T10:54:10.495Z,1.61
2023-03-07T10:56:14.972Z,1.69
2023-03-07T10:58:19.732Z,1.76
2023-03-07T11:00:21.661Z,1.86
2023-03-07T11:02:34.881Z,2.01
2023-03-07T11:04:46.337Z,2.15
2023-03-07T11:06:57.235Z,2.30
2023-03-07T11:09:17.085Z,2.46
2023-03-07T11:11:32.175Z,2.62
2023-03-07T11:13:34.035Z,2.74
2023-03-07T11:15:35.583Z,2.89
2023-03-07T11:17:48.258Z,3.03
2023-03-07T11:19:55.147Z,3.12
2023-03-07T11:21:57.747Z,3.22
2023-03-07T11:24:06.292Z,3.28
2023-03-07T11:26:17.281Z,3.37
2023-03-07T11:28:27.169Z,3.55
2023-03-07T11:30:35.653Z,3.64
2023-03-07T11:32:40.189Z,3.73
2023-03-07T11:34:57.832Z,3.82
2023-03-07T11:37:33.535Z,3.91
2023-03-07T11:39:46.138Z,3.90
2023-03-07T11:41:54.986Z,3.88
2023-03-07T11:44:11.901Z,3.90
2023-03-07T11:46:18.557Z,3.99
2023-03-07T11:48:45.738Z,4.02
2023-03-07T11:50:54.557Z,3.99
2023-03-07T11:53:14.780Z,4.05
2023-03-07T11:55:46.655Z,4.03
2023-03-07T11:57:59.934Z,4.01
2023-03-07T12:00:34.800Z,4.00
2023-03-07T12:02:54.114Z,3.97
2023-03-07T12:05:19.347Z,4.00
2023-03-07T12:07:31.491Z,4.03
2023-03-07T12:10:02.521Z,4.02
2023-03-07T12:12:55.753Z,4.06
2023-03-07T12:15:16.085Z,4.17
2023-03-07T12:17:48.804Z,4.22
2023-03-07T12:20:10.719Z,4.40
2023-03-07T12:22:24.048Z,4.57
2023-03-07T12:24:30.827Z,4.70
2023-03-07T12:26:54.983Z,4.74
2023-03-07T12:29:24.666Z,4.76
2023-03-07T12:31:36.718Z,4.70
2023-03-07T12:33:44.265Z,4.65
2023-03-07T12:35:50.287Z,4.62
2023-03-07T12:38:27.486Z,4.70
2023-03-07T12:40:36.806Z,4.78
2023-03-07T12:42:49.127Z,4.95
2023-03-07T12:45:00.911Z,5.16
2023-03-07T12:47:40.006Z,5.32
2023-03-07T12:49:56.534Z,5.49
2023-03-07T12:52:01.770Z,5.59
2023-03-07T12:54:15.190Z,5.62
2023-03-07T12:56:26.453Z,5.90
2023-03-07T12:59:07.475Z,6.15
2023-03-07T13:01:17.769Z,6.10
2023-03-07T13:03:27.107Z,6.01
2023-03-07T13:05:29.735Z,5.93
2023-03-07T13:07:33.842Z,5.77
2023-03-07T13:09:39.426Z,5.51
2023-03-07T13:12:27.097Z,5.34
2023-03-07T13:14:39.360Z,5.30
2023-03-07T13:16:40.911Z,5.38
2023-03-07T13:18:42.450Z,5.45
2023-03-07T13:20:45.069Z,5.50
2023-03-07T13:22:46.495Z,5.56
2023-03-07T13:24:52.476Z,5.57
2023-03-07T13:26:55.235Z,5.59
2023-03-07T13:28:57.514Z,5.57
2023-03-07T13:31:17.647Z,5.48
2023-03-07T13:33:28.821Z,5.49
2023-03-07T13:35:39.246Z,5.51
2023-03-07T13:38:03.748Z,5.56
2023-03-07T13:40:36.933Z,5.59
2023-03-07T13:42:46.436Z,5.61
2023-03-07T13:44:47.899Z,5.60
2023-03-07T13:46:52.440Z,5.62
2023-03-07T13:48:53.886Z,5.61
2023-03-07T13:50:55.297Z,5.58
2023-03-07T13:52:56.780Z,5.52
2023-03-07T13:55:01.320Z,5.43
2023-03-07T13:57:04.194Z,5.40
2023-03-07T13:59:20.555Z,5.38
2023-03-07T14:01:26.725Z,5.36
2023-03-07T14:03:29.998Z,5.33
2023-03-07T14:05:33.370Z,5.32
2023-03-07T14:07:39.850Z,5.24
2023-03-07T14:09:51.708Z,5.15
2023-03-07T14:12:01.975Z,5.09
2023-03-07T14:14:15.866Z,5.06
2023-03-07T14:16:27.132Z,5.03
2023-03-07T14:18:42.032Z,5.04
2023-03-07T14:21:14.475Z,5.06
2023-03-07T14:23:34.950Z,5.07
2023-03-07T14:25:41.899Z,5.08
2023-03-07T14:28:01.613Z,5.10
2023-03-07T14:30:16.191Z,5.15
2023-03-07T14:32:31.771Z,5.21
2023-03-07T14:34:35.903Z,5.23
2023-03-07T14:36:37.488Z,5.22
2023-03-07T14:38:40.971Z,5.20
2023-03-07T14:40:57.286Z,5.23
2023-03-07T14:43:17.001Z,5.20
2023-03-07T14:45:41.576Z,5.17
2023-03-07T14:47:55.261Z,5.14
2023-03-07T14:49:59.717Z,5.15
2023-03-07T14:52:02.901Z,5.12
2023-03-07T14:54:14.772Z,5.12
2023-03-07T14:56:23.536Z,5.08
2023-03-07T14:58:29.672Z,5.06
2023-03-07T15:00:34.674Z,5.05
2023-03-07T15:02:36.193Z,5.05
2023-03-07T15:04:38.781Z,5.01
2023-03-07T15:06:44.304Z,4.97
2023-03-07T15:08:48.748Z,4.99
2023-03-07T15:11:07.775Z,5.02
2023-03-07T15:13:27.456Z,4.85
2023-03-07T15:15:39.797Z,4.81
2023-03-07T15:17:43.997Z,4.73
2023-03-07T15:19:50.527Z,4.58
2023-03-07T15:21:57.797Z,4.47
2023-03-07T15:24:00.047Z,4.31
2023-03-07T15:26:05.192Z,4.21
2023-03-07T15:28:18.117Z,4.21
2023-03-07T15:30:29.493Z,4.20
2023-03-07T15:32:31.040Z,4.19
2023-03-07T15:34:40.072Z,4.16
2023-03-07T15:36:41.557Z,4.13
2023-03-07T15:39:04.838Z,4.09
2023-03-07T15:41:31.618Z,4.05
2023-03-07T15:43:36.251Z,3.99
2023-03-07T15:45:41.163Z,3.98
2023-03-07T15:47:42.669Z,3.98
2023-03-07T15:49:48.282Z,3.91
2023-03-07T15:51:56.004Z,3.89
2023-03-07T15:54:04.016Z,3.87
2023-03-07T15:56:21.544Z,3.87
2023-03-07T15:58:23.306Z,3.85
2023-03-07T16:00:33.308Z,3.87
2023-03-07T16:02:37.719Z,3.84
2023-03-07T16:04:39.593Z,3.81
2023-03-07T16:06:43.549Z,3.83
2023-03-07T16:08:47.877Z,3.83
2023-03-07T16:11:06.742Z,3.83
2023-03-07T16:13:14.082Z,3.85
2023-03-07T16:15:17.612Z,3.88
2023-03-07T16:17:20.675Z,3.91
2023-03-07T16:19:22.603Z,3.94
2023-03-07T16:21:24.558Z,3.94
2023-03-07T16:23:28.755Z,3.94
2023-03-07T16:25:31.755Z,3.89
2023-03-07T16:27:33.837Z,3.84
2023-03-07T16:29:35.308Z,3.80
2023-03-07T16:31:36.839Z,3.75
2023-03-07T16:33:38.460Z,3.69
2023-03-07T16:35:40.866Z,3.64
2023-03-07T16:37:42.592Z,3.56
2023-03-07T16:39:44.099Z,3.49
2023-03-07T16:41:48.296Z,3.44
2023-03-07T16:43:54.798Z,3.38
2023-03-07T16:45:57.270Z,3.34
2023-03-07T16:48:00.743Z,3.27
2023-03-07T16:50:02.317Z,3.24
2023-03-07T16:52:06.501Z,3.22
2023-03-07T16:54:08.234Z,3.20
2023-03-07T16:56:17.557Z,3.12
2023-03-07T16:58:30.992Z,3.05
2023-03-07T17:00:32.792Z,3.00
2023-03-07T17:02:34.296Z,2.95
2023-03-07T17:04:35.840Z,2.92
2023-03-07T17:06:39.771Z,2.88
2023-03-07T17:08:41.491Z,2.80
2023-03-07T17:10:44.855Z,2.77
2023-03-07T17:12:47.370Z,2.75
2023-03-07T17:14:49.245Z,2.72
2023-03-07T17:16:51.019Z,2.68
2023-03-07T17:18:53.235Z,2.63
2023-03-07T17:20:54.794Z,2.59
2023-03-07T17:22:56.290Z,2.56
2023-03-07T17:24:57.994Z,2.51
2023-03-07T17:27:03.553Z,2.49
2023-03-07T17:29:12.801Z,2.46
2023-03-07T17:31:14.412Z,2.42
2023-03-07T17:33:15.943Z,2.43
2023-03-07T17:35:17.547Z,2.41
2023-03-07T17:37:19.833Z,2.42
2023-03-07T17:39:21.805Z,2.39
2023-03-07T17:41:23.272Z,2.37
2023-03-07T17:43:24.753Z,2.37
2023-03-07T17:45:26.313Z,2.34
2023-03-07T17:47:27.753Z,2.36
2023-03-07T17:49:37.211Z,2.28
2023-03-07T17:51:38.931Z,2.25
2023-03-07T17:53:40.453Z,2.17
2023-03-07T17:55:42.037Z,2.13
2023-03-07T17:57:43.580Z,2.07
2023-03-07T17:59:45.085Z,1.99
2023-03-07T18:01:46.589Z,1.97
2023-03-07T18:03:48.057Z,1.95
2023-03-07T18:05:49.555Z,1.92
2023-03-07T18:07:53.543Z,1.94
2023-03-07T18:10:07.435Z,1.92
2023-03-07T18:12:10.001Z,1.91
2023-03-07T18:14:12.642Z,1.91
2023-03-07T18:16:14.303Z,1.86
2023-03-07T18:18:16.279Z,1.85
2023-03-07T18:20:20.104Z,1.81
2023-03-07T18:22:21.560Z,1.74
2023-03-07T18:24:26.469Z,1.71
2023-03-07T18:26:28.707Z,1.65
2023-03-07T18:28:31.210Z,1.62
2023-03-07T18:30:34.156Z,1.58
2023-03-07T18:32:35.672Z,1.56
2023-03-07T18:34:37.518Z,1.51
2023-03-07T18:36:40.608Z,1.46
2023-03-07T18:38:42.999Z,1.43
2023-03-07T18:40:45.960Z,1.41
2023-03-07T18:42:47.487Z,1.35
2023-03-07T18:44:49.036Z,1.31
2023-03-07T18:46:50.541Z,1.28
2023-03-07T18:48:52.397Z,1.25
2023-03-07T18:51:01.738Z,1.24
2023-03-07T18:53:04.212Z,1.21
2023-03-07T18:55:06.059Z,1.15
2023-03-07T18:57:07.501Z,1.13
2023-03-07T18:59:08.958Z,1.13
2023-03-07T19:01:23.256Z,1.12
2023-03-07T19:03:24.768Z,1.09
2023-03-07T19:05:26.246Z,1.06
2023-03-07T19:07:28.573Z,1.04
2023-03-07T19:09:31.582Z,1.02
2023-03-07T19:11:33.593Z,1.00
2023-03-07T19:13:35.680Z,0.97
2023-03-07T19:15:37.195Z,0.96
2023-03-07T19:17:40.350Z,0.92
2023-03-07T19:19:41.781Z,0.91
2023-03-07T19:21:43.320Z,0.90
2023-03-07T19:23:45.669Z,0.88
2023-03-07T19:25:47.869Z,0.90
2023-03-07T19:27:49.383Z,0.87
2023-03-07T19:29:50.898Z,0.86
2023-03-07T19:31:52.468Z,0.84
2023-03-07T19:33:54.565Z,0.82
2023-03-07T19:36:25.607Z,0.82
2023-03-07T19:38:28.503Z,0.77
2023-03-07T19:40:29.983Z,0.74
2023-03-07T19:42:31.479Z,0.74
2023-03-07T19:44:32.937Z,0.73
2023-03-07T19:46:34.586Z,0.72
2023-03-07T19:48:38.380Z,0.71
2023-03-07T19:50:41.090Z,0.72
2023-03-07T19:52:42.564Z,0.72
2023-03-07T19:54:45.444Z,0.70
2023-03-07T19:56:46.998Z,0.69
2023-03-07T19:58:49.028Z,0.68
2023-03-07T20:00:50.554Z,0.69
2023-03-07T20:02:52.071Z,0.66
2023-03-07T20:04:55.416Z,0.65
2023-03-07T20:06:56.885Z,0.65
2023-03-07T20:09:00.060Z,0.64
2023-03-07T20:11:12.112Z,0.61
2023-03-07T20:13:14.728Z,0.58
2023-03-07T20:15:16.301Z,0.60
2023-03-07T20:17:17.761Z,0.56
2023-03-07T20:19:20.644Z,0.52
2023-03-07T20:21:26.233Z,0.53
2023-03-07T20:23:29.269Z,0.51
2023-03-07T20:25:31.215Z,0.49
2023-03-07T20:27:32.700Z,0.45
2023-03-07T20:29:34.529Z,0.45
2023-03-07T20:31:39.123Z,0.41
2023-03-07T20:33:46.039Z,0.40
2023-03-07T20:35:47.700Z,0.37
2023-03-07T20:37:49.223Z,0.35
2023-03-07T20:39:50.728Z,0.35
2023-03-07T20:41:52.240Z,0.31
2023-03-07T20:43:57.067Z,0.30
2023-03-07T20:46:03.183Z,0.29
2023-03-07T20:48:04.642Z,0.26
2023-03-07T20:50:06.476Z,0.28
2023-03-07T20:52:08.012Z,0.29
2023-03-07T20:54:17.803Z,0.28
2023-03-07T20:56:22.312Z,0.26
2023-03-07T20:58:24.980Z,0.22
2023-03-07T21:00:26.622Z,0.22
2023-03-07T21:02:28.130Z,0.18
2023-03-07T21:04:30.052Z,0.19
2023-03-07T21:06:33.569Z,0.17
2023-03-07T21:08:36.594Z,0.17
2023-03-07T21:10:38.118Z,0.16
2023-03-07T21:12:39.642Z,0.13
2023-03-07T21:14:41.186Z,0.14
2023-03-07T21:16:45.802Z,0.15
2023-03-07T21:18:47.987Z,0.15
2023-03-07T21:20:49.622Z,0.12
2023-03-07T21:22:51.099Z,0.11
2023-03-07T21:24:52.551Z,0.08
2023-03-07T21:26:54.036Z,0.07
2023-03-07T21:28:56.777Z,0.06
2023-03-07T21:31:00.319Z,0.02
2023-03-07T21:33:01.815Z,0.01
2023-03-07T21:35:04.227Z,-0.02
2023-03-07T21:37:05.675Z,0.01
2023-03-07T21:39:09.756Z,-0.03
2023-03-07T21:41:12.296Z,-0.03
2023-03-07T21:43:14.087Z,-0.06
2023-03-07T21:45:15.594Z,-0.06
2023-03-07T21:47:19.937Z,-0.08
2023-03-07T21:49:21.553Z,-0.09
2023-03-07T21:51:23.237Z,-0.12
2023-03-07T21:53:24.882Z,-0.16
2023-03-07T21:55:26.399Z,-0.20
2023-03-07T21:57:30.816Z,-0.20
2023-03-07T21:59:33.413Z,-0.25
2023-03-07T22:01:34.899Z,-0.27
2023-03-07T22:03:36.368Z,-0.27
2023-03-07T22:05:40.785Z,-0.28
2023-03-07T22:07:42.285Z,-0.29
2023-03-07T22:09:43.761Z,-0.28
2023-03-07T22:11:45.214Z,-0.29
2023-03-07T22:13:46.746Z,-0.33
2023-03-07T22:15:48.188Z,-0.33
2023-03-07T22:17:49.702Z,-0.33
2023-03-07T22:19:51.241Z,-0.36
2023-03-07T22:21:52.699Z,-0.38
2023-03-07T22:24:00.611Z,-0.39
2023-03-07T22:26:04.329Z,-0.44
2023-03-07T22:28:05.793Z,-0.47
2023-03-07T22:30:09.922Z,-0.49
2023-03-07T22:32:11.742Z,-0.52
2023-03-07T22:34:13.981Z,-0.53
2023-03-07T22:36:15.663Z,-0.52
2023-03-07T22:38:19.253Z,-0.55
2023-03-07T22:40:20.840Z,-0.54
2023-03-07T22:42:22.318Z,-0.52
2023-03-07T22:44:23.795Z,-0.53
2023-03-07T22:46:25.673Z,-0.55
2023-03-07T22:48:27.544Z,-0.56
2023-03-07T22:50:30.728Z,-0.56
2023-03-07T22:52:32.222Z,-0.54
2023-03-07T22:54:35.045Z,-0.56
2023-03-07T22:56:36.637Z,-0.56
2023-03-07T22:58:38.145Z,-0.56
2023-03-07T23:00:41.284Z,-0.55
2023-03-07T23:02:43.058Z,-0.55
2023-03-07T23:04:44.690Z,-0.55
2023-03-07T23:06:46.167Z,-0.53
2023-03-07T23:08:50.230Z,-0.53
2023-03-07T23:10:51.689Z,-0.54
2023-03-07T23:12:53.298Z,-0.55
2023-03-07T23:14:54.812Z,-0.53
2023-03-07T23:16:56.276Z,-0.54
2023-03-07T23:18:59.512Z,-0.55
2023-03-07T23:21:05.705Z,-0.51
2023-03-07T23:23:07.170Z,-0.49
2023-03-07T23:25:09.572Z,-0.49
2023-03-07T23:27:11.233Z,-0.50
2023-03-07T23:29:12.924Z,-0.51
2023-03-07T23:31:25.554Z,-0.50
2023-03-07T23:33:27.073Z,-0.53
2023-03-07T23:35:28.607Z,-0.53
2023-03-07T23:37:30.086Z,-0.52
2023-03-07T23:39:31.551Z,-0.54
2023-03-07T23:41:32.999Z,-0.55
2023-03-07T23:43:34.531Z,-0.55
2023-03-07T23:45:36.550Z,-0.56
2023-03-07T23:47:39.525Z,-0.61
2023-03-07T23:49:41.014Z,-0.62
2023-03-07T23:51:44.565Z,-0.63
2023-03-07T23:53:46.249Z,-0.61
2023-03-07T23:55:47.739Z,-0.64
2023-03-07T23:57:49.267Z,-0.65
2023-03-07T23:59:50.846Z,-0.67
